createdAt,value
2018-08-03T00:00:47.983Z,95338.33
2018-08-03T00:03:17.859Z,95335.38
2018-08-03T00:05:47.815Z,95332.77
2018-08-03T00:08:17.710Z,95326.64
2018-08-03T00:10:47.696Z,95313.31
2018-08-03T00:13:17.680Z,95327.20
2018-08-03T00:15:47.560Z,95322.56
2018-08-03T00:18:17.577Z,95326.88
2018-08-03T00:20:47.455Z,95319.33
2018-08-03T00:23:17.391Z,95328.91
2018-08-03T00:25:47.371Z,95330.05
2018-08-03T00:28:17.380Z,95329.81
2018-08-03T00:30:47.338Z,95325.30
2018-08-03T00:33:17.435Z,95328.72
2018-08-03T00:35:47.393Z,95332.50
2018-08-03T00:38:17.328Z,95337.12
2018-08-03T00:40:47.247Z,95336.02
2018-08-03T00:43:17.160Z,95332.83
2018-08-03T00:45:47.105Z,95334.16
2018-08-03T00:48:17.259Z,95338.08
2018-08-03T00:50:47.460Z,95332.47
2018-08-03T00:53:17.348Z,95337.92
2018-08-03T00:55:47.540Z,95337.12
2018-08-03T00:58:17.332Z,95330.23
2018-08-03T01:00:47.511Z,95329.69
2018-08-03T01:03:17.475Z,95333.45
2018-08-03T01:05:47.348Z,95332.40
2018-08-03T01:08:17.283Z,95335.97
2018-08-03T01:10:47.534Z,95338.88
2018-08-03T01:13:17.383Z,95337.25
2018-08-03T01:15:47.218Z,95333.62
2018-08-03T01:18:17.188Z,95336.48
2018-08-03T01:20:47.099Z,95332.75
2018-08-03T01:23:17.030Z,95335.36
2018-08-03T01:25:46.863Z,95334.67
2018-08-03T01:28:16.874Z,95331.07
2018-08-03T01:30:46.848Z,95336.06
2018-08-03T01:33:16.894Z,95333.45
2018-08-03T01:35:46.704Z,95338.26
2018-08-03T01:38:16.664Z,95336.06
2018-08-03T01:40:46.740Z,95339.75
2018-08-03T01:43:16.742Z,95349.17
2018-08-03T01:45:46.638Z,95351.94
2018-08-03T01:48:16.544Z,95342.61
2018-08-03T01:50:46.518Z,95340.66
2018-08-03T01:53:16.396Z,95343.73
2018-08-03T01:55:46.276Z,95346.22
2018-08-03T01:58:16.257Z,95350.69
2018-08-03T02:00:46.167Z,95352.51
2018-08-03T02:03:16.101Z,95349.95
2018-08-03T02:05:46.035Z,95345.23
2018-08-03T02:08:15.945Z,95345.53
2018-08-03T02:10:45.980Z,95345.43
2018-08-03T02:13:15.744Z,95351.28
2018-08-03T02:15:45.561Z,95344.58
2018-08-03T02:18:15.561Z,95341.59
2018-08-03T02:20:45.376Z,95346.77
2018-08-03T02:23:15.288Z,95347.11
2018-08-03T02:25:45.222Z,95352.72
2018-08-03T02:28:15.176Z,95352.05
2018-08-03T02:30:45.037Z,95353.38
2018-08-03T02:33:14.808Z,95350.95
2018-08-03T02:35:44.861Z,95357.75
2018-08-03T02:38:14.931Z,95358.94
2018-08-03T02:40:44.941Z,95359.09
2018-08-03T02:43:14.837Z,95355.28
2018-08-03T02:45:44.955Z,95350.30
2018-08-03T02:48:14.787Z,95362.22
2018-08-03T02:50:44.717Z,95356.95
2018-08-03T02:53:14.707Z,95362.45
2018-08-03T02:55:44.796Z,95365.12
2018-08-03T02:58:14.644Z,95363.64
2018-08-03T03:00:44.660Z,95365.45
2018-08-03T03:03:14.428Z,95364.88
2018-08-03T03:05:44.246Z,95371.22
2018-08-03T03:08:14.092Z,95363.27
2018-08-03T03:10:43.936Z,95369.11
2018-08-03T03:13:13.804Z,95367.83
2018-08-03T03:15:43.800Z,95370.44
2018-08-03T03:18:13.771Z,95363.34
2018-08-03T03:20:43.638Z,95361.26
2018-08-03T03:23:13.633Z,95364.07
2018-08-03T03:25:43.562Z,95363.59
2018-08-03T03:28:13.415Z,95369.96
2018-08-03T03:30:43.289Z,95371.73
2018-08-03T03:33:13.229Z,95373.50
2018-08-03T03:35:43.132Z,95378.80
2018-08-03T03:38:13.099Z,95390.40
2018-08-03T03:40:43.030Z,95384.55
2018-08-03T03:43:13.028Z,95379.09
2018-08-03T03:45:43.135Z,95379.67
2018-08-03T03:48:13.131Z,95380.10
2018-08-03T03:50:42.916Z,95385.85
2018-08-03T03:53:13.018Z,95385.80
2018-08-03T03:55:43.029Z,95389.78
2018-08-03T03:58:12.913Z,95397.00
2018-08-03T04:00:42.736Z,95393.02
2018-08-03T04:03:12.767Z,95408.38
2018-08-03T04:05:42.547Z,95402.89
2018-08-03T04:08:12.432Z,95401.17
2018-08-03T04:10:42.342Z,95406.47
2018-08-03T04:13:12.195Z,95406.52
2018-08-03T04:15:42.056Z,95410.91
2018-08-03T04:18:18.983Z,95409.21
2018-08-03T04:20:49.228Z,95403.56
2018-08-03T04:23:19.310Z,95409.19
2018-08-03T04:25:49.290Z,95410.08
2018-08-03T04:28:19.138Z,95403.45
2018-08-03T04:30:49.091Z,95409.88
2018-08-03T04:33:18.983Z,95407.63
2018-08-03T04:35:48.852Z,95412.56
2018-08-03T04:38:18.717Z,95414.13
2018-08-03T04:40:48.628Z,95414.61
2018-08-03T04:43:18.408Z,95417.56
2018-08-03T04:45:48.339Z,95422.75
2018-08-03T04:48:18.407Z,95427.94
2018-08-03T04:50:48.258Z,95426.84
2018-08-03T04:53:18.106Z,95431.73
2018-08-03T04:55:47.979Z,95436.85
2018-08-03T04:58:17.819Z,95442.03
2018-08-03T05:00:47.671Z,95435.77
2018-08-03T05:03:17.514Z,95437.29
2018-08-03T05:05:47.551Z,95435.33
2018-08-03T05:08:17.540Z,95435.96
2018-08-03T05:10:47.855Z,95443.09
2018-08-03T05:13:17.770Z,95439.56
2018-08-03T05:15:47.699Z,95445.05
2018-08-03T05:18:17.652Z,95446.38
2018-08-03T05:20:47.455Z,95448.38
2018-08-03T05:23:17.631Z,95446.89
2018-08-03T05:25:47.649Z,95444.70
2018-08-03T05:28:17.532Z,95445.56
2018-08-03T05:30:47.360Z,95440.34
2018-08-03T05:33:17.228Z,95444.15
2018-08-03T05:35:47.027Z,95445.06
2018-08-03T05:38:16.930Z,95444.77
2018-08-03T05:40:46.935Z,95444.05
2018-08-03T05:43:16.908Z,95444.57
2018-08-03T05:45:46.823Z,95441.57
2018-08-03T05:48:16.670Z,95441.41
2018-08-03T05:50:46.589Z,95440.34
2018-08-03T05:53:16.607Z,95437.89
2018-08-03T05:55:46.560Z,95441.86
2018-08-03T05:58:16.446Z,95443.59
2018-08-03T06:00:46.482Z,95441.45
2018-08-03T06:03:16.384Z,95443.36
2018-08-03T06:05:46.392Z,95436.88
2018-08-03T06:08:16.338Z,95442.42
2018-08-03T06:10:46.177Z,95447.84
2018-08-03T06:13:16.087Z,95452.86
2018-08-03T06:15:45.948Z,95450.27
2018-08-03T06:18:15.899Z,95454.73
2018-08-03T06:20:45.826Z,95452.52
2018-08-03T06:23:15.787Z,95452.25
2018-08-03T06:25:45.633Z,95448.94
2018-08-03T06:28:15.559Z,95451.18
2018-08-03T06:30:45.440Z,95452.02
2018-08-03T06:33:15.511Z,95450.24
2018-08-03T06:35:45.513Z,95450.10
2018-08-03T06:38:15.407Z,95451.23
2018-08-03T06:40:45.271Z,95445.09
2018-08-03T06:43:15.083Z,95445.00
2018-08-03T06:45:44.985Z,95448.80
2018-08-03T06:48:14.978Z,95442.95
2018-08-03T06:50:44.814Z,95446.25
2018-08-03T06:53:14.747Z,95447.36
2018-08-03T06:55:44.632Z,95448.56
2018-08-03T06:58:14.538Z,95445.41
2018-08-03T07:00:44.395Z,95447.52
2018-08-03T07:06:43.751Z,95447.28
2018-08-03T07:12:14.092Z,95451.95
2018-08-03T07:14:49.710Z,95455.58
2018-08-03T07:17:20.157Z,95448.72
2018-08-03T07:24:52.854Z,95456.84
2018-08-03T07:27:22.722Z,95452.63
2018-08-03T07:29:52.726Z,95448.40
2018-08-03T07:32:22.559Z,95461.13
2018-08-03T07:34:52.371Z,95455.43
2018-08-03T07:37:22.162Z,95460.13
2018-08-03T07:39:52.009Z,95450.55
2018-08-03T07:42:21.822Z,95446.38
2018-08-03T07:44:51.680Z,95466.44
2018-08-03T07:47:21.627Z,95460.41
2018-08-03T07:49:51.515Z,95466.61
2018-08-03T07:52:21.441Z,95458.13
2018-08-03T07:54:51.273Z,95460.91
2018-08-03T07:57:21.119Z,95462.13
2018-08-03T07:59:51.003Z,95472.07
2018-08-03T08:02:20.886Z,95469.61
2018-08-03T08:04:51.167Z,95480.63
2018-08-03T08:07:21.036Z,95476.89
2018-08-03T08:09:51.000Z,95475.09
2018-08-03T08:12:20.897Z,95471.63
2018-08-03T08:14:50.815Z,95470.87
2018-08-03T08:17:20.662Z,95470.52
2018-08-03T08:19:50.549Z,95475.17
2018-08-03T08:22:20.311Z,95485.67
2018-08-03T08:24:50.113Z,95482.12
2018-08-03T08:27:19.979Z,95476.36
2018-08-03T08:29:49.838Z,95474.73
2018-08-03T08:32:19.763Z,95474.44
2018-08-03T08:34:49.657Z,95471.02
2018-08-03T08:37:19.729Z,95473.25
2018-08-03T08:39:49.767Z,95469.83
2018-08-03T08:42:19.660Z,95465.92
2018-08-03T08:44:49.636Z,95463.63
2018-08-03T08:47:19.488Z,95463.82
2018-08-03T08:49:49.385Z,95463.94
2018-08-03T08:52:19.435Z,95465.61
2018-08-03T08:54:49.399Z,95466.37
2018-08-03T08:57:19.179Z,95472.33
2018-08-03T08:59:49.129Z,95466.29
2018-08-03T09:02:19.319Z,95477.14
2018-08-03T09:04:49.270Z,95466.77
2018-08-03T09:07:19.195Z,95473.34
2018-08-03T09:09:49.028Z,95473.14
2018-08-03T09:12:18.902Z,95468.25
2018-08-03T09:14:48.727Z,95470.38
2018-08-03T09:17:18.592Z,95463.16
2018-08-03T09:19:48.460Z,95453.14
2018-08-03T09:22:18.279Z,95452.28
2018-08-03T09:24:48.083Z,95441.62
2018-08-03T09:27:17.862Z,95439.95
2018-08-03T09:29:47.798Z,95437.09
2018-08-03T09:32:17.636Z,95450.02
2018-08-03T09:34:47.470Z,95441.40
2018-08-03T09:37:17.329Z,95440.56
2018-08-03T09:39:47.204Z,95443.19
2018-08-03T09:42:17.008Z,95442.84
2018-08-03T09:44:47.033Z,95439.17
2018-08-03T09:47:16.887Z,95445.15
2018-08-03T09:49:46.698Z,95433.48
2018-08-03T09:52:16.570Z,95429.30
2018-08-03T09:54:46.426Z,95438.70
2018-08-03T09:57:16.428Z,95431.91
2018-08-03T09:59:46.349Z,95440.45
2018-08-03T10:02:16.216Z,95437.95
2018-08-03T10:04:46.142Z,95419.83
2018-08-03T10:07:16.164Z,95420.95
2018-08-03T10:09:45.976Z,95416.17
2018-08-03T10:12:15.826Z,95421.70
2018-08-03T10:14:45.730Z,95444.93
2018-08-03T10:17:15.600Z,95417.80
2018-08-03T10:19:45.374Z,95415.16
2018-08-03T10:22:15.179Z,95416.59
2018-08-03T10:24:44.991Z,95416.88
2018-08-03T10:27:14.908Z,95412.75
2018-08-03T10:29:44.837Z,95399.39
2018-08-03T10:32:14.727Z,95397.77
2018-08-03T10:34:44.554Z,95408.04
2018-08-03T10:37:14.343Z,95385.19
2018-08-03T10:39:44.207Z,95394.17
2018-08-03T10:42:14.136Z,95382.83
2018-08-03T10:44:44.030Z,95392.75
2018-08-03T10:47:14.012Z,95384.60
2018-08-03T10:49:43.787Z,95381.12
2018-08-03T10:52:13.677Z,95382.14
2018-08-03T10:54:43.474Z,95367.53
2018-08-03T10:57:13.359Z,95383.27
2018-08-03T10:59:43.144Z,95379.03
2018-08-03T11:02:13.168Z,95378.28
2018-08-03T11:04:43.064Z,95375.70
2018-08-03T11:07:12.966Z,95370.33
2018-08-03T11:09:42.910Z,95371.77
2018-08-03T11:12:12.866Z,95374.47
2018-08-03T11:14:42.671Z,95366.20
2018-08-03T11:17:12.485Z,95361.63
2018-08-03T11:19:42.355Z,95363.30
2018-08-03T11:22:12.259Z,95364.92
2018-08-03T11:24:42.123Z,95366.80
2018-08-03T11:27:11.938Z,95354.45
2018-08-03T11:29:41.786Z,95371.95
2018-08-03T11:32:11.795Z,95355.80
2018-08-03T11:34:41.675Z,95353.76
2018-08-03T11:37:11.435Z,95357.77
2018-08-03T11:39:41.219Z,95359.53
2018-08-03T11:42:11.024Z,95349.50
2018-08-03T11:44:40.892Z,95367.41
2018-08-03T11:47:10.749Z,95351.72
2018-08-03T11:49:40.615Z,95357.22
2018-08-03T11:52:10.531Z,95350.75
2018-08-03T11:54:40.512Z,95346.73
2018-08-03T11:57:10.284Z,95367.33
2018-08-03T11:59:40.240Z,95352.76
2018-08-03T12:02:10.153Z,95342.67
2018-08-03T12:04:40.612Z,95349.38
2018-08-03T12:07:10.455Z,95338.44
2018-08-03T12:09:40.357Z,95357.33
2018-08-03T12:12:10.324Z,95352.62
2018-08-03T12:14:40.264Z,95334.48
2018-08-03T12:17:10.359Z,95328.33
2018-08-03T12:19:40.516Z,95331.47
2018-08-03T12:22:10.484Z,95328.41
2018-08-03T12:24:40.244Z,95332.73
2018-08-03T12:27:10.268Z,95331.22
2018-08-03T12:29:40.235Z,95330.99
2018-08-03T12:32:10.129Z,95333.90
2018-08-03T12:34:40.107Z,95333.59
2018-08-03T12:37:09.983Z,95326.38
2018-08-03T12:39:39.936Z,95328.52
2018-08-03T12:42:09.827Z,95303.56
2018-08-03T12:44:39.658Z,95314.14
2018-08-03T12:47:09.563Z,95324.00
2018-08-03T12:49:39.415Z,95320.67
2018-08-03T12:52:09.193Z,95314.98
2018-08-03T12:54:39.039Z,95325.39
2018-08-03T12:57:08.895Z,95306.84
2018-08-03T12:59:39.027Z,95300.59
2018-08-03T13:02:08.963Z,95322.22
2018-08-03T13:04:38.869Z,95300.75
2018-08-03T13:07:08.899Z,95321.58
2018-08-03T13:09:38.720Z,95304.19
2018-08-03T13:12:08.648Z,95306.23
2018-08-03T13:14:38.541Z,95315.91
2018-08-03T13:17:08.451Z,95302.75
2018-08-03T13:19:38.412Z,95288.02
2018-08-03T13:22:17.716Z,95310.58
2018-08-03T13:24:47.728Z,95299.78
2018-08-03T13:27:17.997Z,95296.24
2018-08-03T13:29:47.816Z,95292.48
2018-08-03T13:32:17.646Z,95302.02
2018-08-03T13:34:47.544Z,95314.66
2018-08-03T13:37:17.386Z,95294.85
2018-08-03T13:39:47.152Z,95306.47
2018-08-03T13:42:17.063Z,95293.70
2018-08-03T13:44:47.046Z,95295.68
2018-08-03T13:47:16.876Z,95300.27
2018-08-03T13:49:46.747Z,95293.99
2018-08-03T13:52:16.504Z,95302.62
2018-08-03T13:54:46.423Z,95300.95
2018-08-03T13:57:16.323Z,95294.98
2018-08-03T13:59:46.159Z,95280.83
2018-08-03T14:02:23.439Z,95285.02
2018-08-03T14:04:54.015Z,95284.13
2018-08-03T14:07:24.805Z,95271.09
2018-08-03T14:09:54.806Z,95283.56
2018-08-03T14:12:24.687Z,95284.38
2018-08-03T14:14:54.601Z,95287.66
2018-08-03T14:17:24.479Z,95290.48
2018-08-03T14:19:55.477Z,95272.87
2018-08-03T14:22:25.324Z,95267.27
2018-08-03T14:24:55.467Z,95283.16
2018-08-03T14:27:25.305Z,95254.20
2018-08-03T14:29:55.083Z,95271.17
2018-08-03T14:32:25.055Z,95270.41
2018-08-03T14:34:54.971Z,95263.55
2018-08-03T14:37:24.887Z,95251.97
2018-08-03T14:39:54.936Z,95265.41
2018-08-03T14:42:24.816Z,95264.48
2018-08-03T14:44:54.752Z,95279.00
2018-08-03T14:47:24.716Z,95266.98
2018-08-03T14:49:56.047Z,95272.24
2018-08-03T14:52:26.215Z,95251.80
2018-08-03T14:54:56.512Z,95255.55
2018-08-03T14:57:26.643Z,95248.56
2018-08-03T14:59:56.622Z,95256.09
2018-08-03T15:02:26.568Z,95250.13
2018-08-03T15:04:56.544Z,95257.84
2018-08-03T15:07:26.536Z,95245.97
2018-08-03T15:09:56.385Z,95261.75
2018-08-03T15:12:26.372Z,95243.30
2018-08-03T15:14:56.206Z,95265.77
2018-08-03T15:17:26.145Z,95256.52
2018-08-03T15:19:56.003Z,95256.91
2018-08-03T15:22:26.272Z,95266.48
2018-08-03T15:24:56.432Z,95256.24
2018-08-03T15:27:26.204Z,95263.87
2018-08-03T15:29:56.007Z,95267.49
2018-08-03T15:32:25.868Z,95263.44
2018-08-03T15:34:55.636Z,95265.20
2018-08-03T15:37:25.652Z,95273.33
2018-08-03T15:39:55.676Z,95288.12
2018-08-03T15:42:25.506Z,95282.69
2018-08-03T15:44:55.499Z,95267.17
2018-08-03T15:47:25.531Z,95270.76
2018-08-03T15:49:55.417Z,95279.21
2018-08-03T15:52:25.309Z,95273.16
2018-08-03T15:54:55.252Z,95268.97
2018-08-03T15:57:25.132Z,95276.02
2018-08-03T15:59:54.980Z,95269.70
2018-08-03T16:02:25.112Z,95274.23
2018-08-03T16:04:54.910Z,95278.08
2018-08-03T16:07:25.097Z,95280.12
2018-08-03T16:09:55.154Z,95278.50
2018-08-03T16:12:25.141Z,95276.16
2018-08-03T16:14:55.184Z,95288.49
2018-08-03T16:17:25.008Z,95291.42
2018-08-03T16:19:54.825Z,95289.61
2018-08-03T16:22:24.752Z,95280.38
2018-08-03T16:24:54.727Z,95285.62
2018-08-03T16:27:24.675Z,95283.95
2018-08-03T16:29:54.545Z,95288.70
2018-08-03T16:32:24.520Z,95291.58
2018-08-03T16:34:54.398Z,95292.73
2018-08-03T16:37:24.284Z,95280.62
2018-08-03T16:39:54.241Z,95298.99
2018-08-03T16:42:24.242Z,95296.45
2018-08-03T16:44:54.095Z,95291.75
2018-08-03T16:47:24.220Z,95291.31
2018-08-03T16:49:54.076Z,95284.41
2018-08-03T16:52:23.954Z,95292.05
2018-08-03T16:54:53.740Z,95288.09
2018-08-03T16:57:23.719Z,95288.91
2018-08-03T16:59:53.576Z,95291.42
2018-08-03T17:02:23.696Z,95296.54
2018-08-03T17:04:53.689Z,95293.72
2018-08-03T17:07:23.797Z,95293.52
2018-08-03T17:09:53.905Z,95289.63
2018-08-03T17:12:23.752Z,95296.64
2018-08-03T17:14:53.728Z,95294.92
2018-08-03T17:17:23.567Z,95300.77
2018-08-03T17:19:53.605Z,95304.72
2018-08-03T17:22:23.542Z,95301.80
2018-08-03T17:24:53.495Z,95305.86
2018-08-03T17:27:23.356Z,95303.52
2018-08-03T17:29:53.175Z,95313.89
2018-08-03T17:32:23.153Z,95314.16
2018-08-03T17:34:53.039Z,95317.62
2018-08-03T17:37:22.883Z,95317.11
2018-08-03T17:39:53.255Z,95315.30
2018-08-03T17:42:23.201Z,95316.13
2018-08-03T17:44:53.031Z,95318.23
2018-08-03T17:47:22.993Z,95325.32
2018-08-03T17:49:52.924Z,95326.66
2018-08-03T17:52:22.780Z,95325.77
2018-08-03T17:54:52.862Z,95321.59
2018-08-03T17:57:22.675Z,95318.74
2018-08-03T17:59:52.547Z,95318.19
2018-08-03T18:02:22.487Z,95318.34
2018-08-03T18:04:52.271Z,95320.16
2018-08-03T18:07:22.135Z,95323.00
2018-08-03T18:09:52.111Z,95323.89
2018-08-03T18:12:21.995Z,95319.08
2018-08-03T18:14:52.783Z,95329.25
2018-08-03T18:17:23.860Z,95334.20
2018-08-03T18:19:54.668Z,95334.52
2018-08-03T18:22:24.492Z,95339.41
2018-08-03T18:24:54.292Z,95346.69
2018-08-03T18:27:24.218Z,95346.96
2018-08-03T18:29:54.246Z,95350.00
2018-08-03T18:32:24.192Z,95352.25
2018-08-03T18:34:54.108Z,95353.51
2018-08-03T18:37:23.971Z,95356.44
2018-08-03T18:39:53.863Z,95360.81
2018-08-03T18:42:23.767Z,95358.47
2018-08-03T18:44:53.584Z,95361.70
2018-08-03T18:47:23.480Z,95366.77
2018-08-03T18:49:53.314Z,95369.28
2018-08-03T18:52:23.209Z,95362.70
2018-08-03T18:54:53.115Z,95366.70
2018-08-03T18:57:22.985Z,95365.31
2018-08-03T18:59:52.999Z,95368.13
2018-08-03T19:02:22.905Z,95361.95
2018-08-03T19:04:52.874Z,95369.69
2018-08-03T19:07:22.823Z,95363.56
2018-08-03T19:09:55.552Z,95364.66
2018-08-03T19:12:25.355Z,95361.75
2018-08-03T19:14:55.189Z,95367.00
2018-08-03T19:17:24.983Z,95369.03
2018-08-03T19:19:54.809Z,95373.47
2018-08-03T19:22:24.763Z,95376.61
2018-08-03T19:24:54.672Z,95377.42
2018-08-03T19:27:24.479Z,95367.70
2018-08-03T19:29:54.332Z,95378.38
2018-08-03T19:32:24.190Z,95378.30
2018-08-03T19:34:53.987Z,95371.89
2018-08-03T19:37:23.782Z,95375.90
2018-08-03T19:39:53.667Z,95377.30
2018-08-03T19:42:23.509Z,95369.43
2018-08-03T19:44:53.425Z,95370.80
2018-08-03T19:47:23.487Z,95375.11
2018-08-03T19:49:53.391Z,95381.36
2018-08-03T19:52:23.260Z,95375.26
2018-08-03T19:54:53.106Z,95369.08
2018-08-03T19:57:23.057Z,95361.58
2018-08-03T19:59:52.842Z,95369.69
2018-08-03T20:02:22.864Z,95363.67
2018-08-03T20:04:52.660Z,95363.27
2018-08-03T20:07:22.531Z,95366.08
2018-08-03T20:09:52.459Z,95369.77
2018-08-03T20:12:22.307Z,95371.55
2018-08-03T20:14:52.134Z,95369.50
2018-08-03T20:17:22.085Z,95371.17
2018-08-03T20:19:51.949Z,95375.55
2018-08-03T20:22:21.816Z,95369.90
2018-08-03T20:24:51.691Z,95370.89
2018-08-03T20:27:21.611Z,95372.45
2018-08-03T20:29:51.452Z,95371.08
2018-08-03T20:32:21.304Z,95376.42
2018-08-03T20:34:51.184Z,95371.08
2018-08-03T20:37:21.080Z,95373.25
2018-08-03T20:39:50.915Z,95371.04
2018-08-03T20:42:20.975Z,95371.23
2018-08-03T20:44:50.813Z,95373.56
2018-08-03T20:47:20.651Z,95367.16
2018-08-03T20:49:50.448Z,95371.06
2018-08-03T20:52:20.437Z,95370.84
2018-08-03T20:54:50.307Z,95375.11
2018-08-03T20:57:20.121Z,95384.45
2018-08-03T20:59:49.996Z,95379.45
2018-08-03T21:02:19.784Z,95388.38
2018-08-03T21:04:49.575Z,95392.07
2018-08-03T21:07:19.437Z,95387.30
2018-08-03T21:09:49.281Z,95386.25
2018-08-03T21:12:19.180Z,95388.23
2018-08-03T21:14:49.015Z,95390.53
2018-08-03T21:17:18.986Z,95387.34
2018-08-03T21:19:48.851Z,95394.12
2018-08-03T21:22:18.733Z,95392.79
2018-08-03T21:24:48.652Z,95393.34
2018-08-03T21:27:18.527Z,95395.80
2018-08-03T21:29:48.360Z,95396.53
2018-08-03T21:32:18.287Z,95403.44
2018-08-03T21:34:48.231Z,95403.05
2018-08-03T21:37:17.999Z,95401.98
2018-08-03T21:39:47.823Z,95403.23
2018-08-03T21:42:17.765Z,95399.59
2018-08-03T21:44:47.787Z,95407.44
2018-08-03T21:47:17.640Z,95408.48
2018-08-03T21:49:47.451Z,95406.63
2018-08-03T21:52:17.302Z,95398.61
2018-08-03T21:54:47.323Z,95401.34
2018-08-03T21:57:17.251Z,95405.56
2018-08-03T21:59:47.126Z,95401.61
2018-08-03T22:02:16.941Z,95403.23
2018-08-03T22:04:46.816Z,95403.75
2018-08-03T22:07:16.682Z,95404.41
2018-08-03T22:09:46.518Z,95401.75
2018-08-03T22:12:16.378Z,95398.91
2018-08-03T22:14:46.334Z,95407.00
2018-08-03T22:17:16.245Z,95406.04
2018-08-03T22:19:46.113Z,95405.48
2018-08-03T22:22:15.863Z,95413.19
2018-08-03T22:24:45.658Z,95409.63
2018-08-03T22:27:15.488Z,95408.09
2018-08-03T22:29:45.298Z,95405.21
2018-08-03T22:32:15.137Z,95396.78
2018-08-03T22:34:44.976Z,95400.20
2018-08-03T22:37:14.826Z,95408.77
2018-08-03T22:39:44.640Z,95401.83
2018-08-03T22:42:14.438Z,95399.45
2018-08-03T22:44:44.392Z,95397.22
2018-08-03T22:47:14.191Z,95396.22
2018-08-03T22:49:44.147Z,95397.83
2018-08-03T22:52:13.963Z,95401.64
2018-08-03T22:54:43.806Z,95398.26
2018-08-03T22:57:13.607Z,95390.50
2018-08-03T22:59:43.547Z,95391.75
2018-08-03T23:02:13.356Z,95386.80
2018-08-03T23:04:43.190Z,95397.88
2018-08-03T23:07:13.050Z,95388.71
2018-08-03T23:09:43.054Z,95392.36
2018-08-03T23:12:12.888Z,95386.52
2018-08-03T23:14:42.749Z,95385.46
2018-08-03T23:17:12.633Z,95385.55
2018-08-03T23:19:42.500Z,95383.11
2018-08-03T23:22:12.379Z,95386.81
2018-08-03T23:24:42.464Z,95388.30
2018-08-03T23:27:12.282Z,95385.88
2018-08-03T23:29:42.067Z,95388.45
2018-08-03T23:32:11.916Z,95383.49
2018-08-03T23:34:41.707Z,95383.26
2018-08-03T23:37:12.479Z,95384.17
2018-08-03T23:39:42.324Z,95381.87
2018-08-03T23:42:12.411Z,95385.52
2018-08-03T23:44:42.404Z,95383.71
2018-08-03T23:47:12.326Z,95383.19
2018-08-03T23:49:42.216Z,95382.52
2018-08-03T23:52:12.104Z,95382.95
2018-08-03T23:54:42.060Z,95383.80
2018-08-03T23:57:11.878Z,95381.14
2018-08-03T23:59:41.974Z,95380.23
